createdAt,value
2022-12-06T00:00:30.037Z,38.00
2022-12-06T00:06:40.759Z,38.10
2022-12-06T00:12:50.902Z,38.40
2022-12-06T00:19:00.605Z,38.60
2022-12-06T00:25:14.071Z,38.80
2022-12-06T00:31:24.367Z,39.20
2022-12-06T00:37:34.572Z,38.70
2022-12-06T00:43:46.576Z,38.00
2022-12-06T00:50:00.227Z,38.00
2022-12-06T00:56:14.434Z,38.30
2022-12-06T01:02:27.584Z,38.20
2022-12-06T01:08:41.386Z,38.50
2022-12-06T01:14:53.233Z,38.40
2022-12-06T01:21:03.046Z,37.60
2022-12-06T01:27:12.266Z,37.90
2022-12-06T01:33:22.988Z,37.70
2022-12-06T01:39:32.722Z,37.50
2022-12-06T01:45:43.441Z,37.60
2022-12-06T01:51:53.104Z,37.70
2022-12-06T01:58:03.701Z,37.50
2022-12-06T02:04:13.094Z,37.50
2022-12-06T02:10:23.520Z,37.40
2022-12-06T02:16:40.955Z,37.50
2022-12-06T02:23:09.561Z,37.50
2022-12-06T02:29:45.413Z,37.50
2022-12-06T02:35:55.560Z,37.50
2022-12-06T02:42:04.582Z,37.30
2022-12-06T02:48:16.135Z,37.40
2022-12-06T02:54:27.382Z,37.30
2022-12-06T03:00:41.160Z,37.30
2022-12-06T03:07:00.776Z,37.30
2022-12-06T03:13:15.020Z,37.20
2022-12-06T03:19:25.424Z,37.20
2022-12-06T03:25:36.283Z,37.30
2022-12-06T03:31:45.461Z,37.30
2022-12-06T03:37:57.676Z,37.20
2022-12-06T03:44:05.251Z,37.20
2022-12-06T03:50:18.699Z,37.20
2022-12-06T03:56:28.969Z,37.20
2022-12-06T04:02:39.047Z,37.10
2022-12-06T04:08:48.924Z,37.00
2022-12-06T04:14:58.140Z,37.00
2022-12-06T04:21:23.348Z,37.10
2022-12-06T04:27:49.398Z,37.10
2022-12-06T04:34:15.436Z,37.10
2022-12-06T04:40:22.850Z,37.00
2022-12-06T04:46:35.039Z,37.20
2022-12-06T04:52:44.907Z,37.20
2022-12-06T04:58:54.824Z,37.20
2022-12-06T05:05:04.256Z,37.20
2022-12-06T05:11:13.739Z,37.10
2022-12-06T05:17:22.988Z,37.20
2022-12-06T05:23:31.928Z,37.10
2022-12-06T05:29:39.469Z,37.20
2022-12-06T05:35:46.842Z,37.40
2022-12-06T05:41:57.157Z,37.30
2022-12-06T05:48:08.463Z,37.30
2022-12-06T05:54:20.093Z,37.30
2022-12-06T06:00:30.412Z,37.30
2022-12-06T06:06:41.220Z,37.20
2022-12-06T06:12:53.286Z,37.30
2022-12-06T06:19:02.309Z,37.40
2022-12-06T06:25:10.956Z,37.40
2022-12-06T06:31:21.438Z,37.40
2022-12-06T06:37:31.433Z,37.40
2022-12-06T06:43:38.799Z,37.40
2022-12-06T06:49:48.758Z,37.50
2022-12-06T06:55:58.898Z,37.60
2022-12-06T07:02:08.513Z,37.70
2022-12-06T07:08:20.329Z,37.80
2022-12-06T07:14:29.287Z,37.90
2022-12-06T07:20:41.052Z,38.40
2022-12-06T07:26:50.527Z,38.70
2022-12-06T07:32:57.925Z,38.80
2022-12-06T07:39:14.994Z,38.60
2022-12-06T07:45:24.163Z,38.40
2022-12-06T07:51:35.412Z,38.60
2022-12-06T07:57:44.398Z,38.60
2022-12-06T08:03:57.211Z,38.40
2022-12-06T08:10:08.491Z,38.30
2022-12-06T08:16:18.133Z,38.30
2022-12-06T08:22:28.252Z,38.20
2022-12-06T08:28:37.608Z,38.10
2022-12-06T08:34:48.917Z,38.00
2022-12-06T08:40:58.055Z,37.90
2022-12-06T08:47:07.389Z,37.90
2022-12-06T08:53:16.985Z,37.90
2022-12-06T08:59:26.705Z,37.80
2022-12-06T09:05:34.686Z,37.80
2022-12-06T09:11:45.777Z,37.70
2022-12-06T09:17:54.131Z,37.80
2022-12-06T09:24:05.184Z,37.60
2022-12-06T09:30:19.090Z,37.60
2022-12-06T09:36:27.568Z,37.60
2022-12-06T09:42:52.176Z,37.40
2022-12-06T09:49:42.021Z,37.50
2022-12-06T09:56:02.808Z,37.50
2022-12-06T10:02:23.499Z,37.40
2022-12-06T10:08:39.580Z,37.30
2022-12-06T10:15:10.546Z,37.30
2022-12-06T10:21:23.859Z,37.40
2022-12-06T10:27:34.645Z,37.40
2022-12-06T10:33:51.200Z,37.30
2022-12-06T10:40:00.287Z,37.20
2022-12-06T10:46:27.700Z,37.30
2022-12-06T10:52:41.652Z,37.30
2022-12-06T10:58:55.155Z,37.70
2022-12-06T11:05:05.545Z,37.50
2022-12-06T11:11:17.557Z,37.30
2022-12-06T11:17:28.844Z,37.40
2022-12-06T11:23:41.940Z,37.50
2022-12-06T11:29:53.882Z,37.60
2022-12-06T11:36:05.496Z,37.60
2022-12-06T11:42:17.365Z,37.70
2022-12-06T11:48:31.655Z,37.80
2022-12-06T11:54:41.359Z,37.60
2022-12-06T12:01:05.032Z,37.50
2022-12-06T12:07:18.605Z,37.60
2022-12-06T12:13:48.940Z,37.70
2022-12-06T12:19:59.376Z,38.00
2022-12-06T12:26:14.785Z,38.10
2022-12-06T12:32:24.877Z,38.30
2022-12-06T12:38:39.073Z,38.50
2022-12-06T12:44:48.762Z,38.50
2022-12-06T12:50:59.579Z,38.50
2022-12-06T12:57:16.586Z,38.50
2022-12-06T13:03:51.039Z,38.50
2022-12-06T13:09:43.164Z,38.10
2022-12-06T13:15:52.165Z,38.00
2022-12-06T13:22:03.792Z,38.50
2022-12-06T13:28:19.954Z,38.60
2022-12-06T13:34:36.080Z,38.20
2022-12-06T13:40:50.001Z,37.90
2022-12-06T13:46:58.249Z,38.10
2022-12-06T13:53:07.115Z,39.40
2022-12-06T13:59:41.283Z,39.20
2022-12-06T14:06:14.751Z,38.50
2022-12-06T14:12:28.281Z,38.00
2022-12-06T14:18:38.804Z,38.10
2022-12-06T14:24:50.983Z,39.50
2022-12-06T14:31:09.247Z,38.80
2022-12-06T14:37:24.422Z,38.20
2022-12-06T14:43:35.428Z,38.10
2022-12-06T14:50:00.321Z,38.90
2022-12-06T14:56:11.924Z,39.80
2022-12-06T15:02:35.923Z,38.40
2022-12-06T15:08:50.549Z,38.30
2022-12-06T15:15:03.136Z,38.50
2022-12-06T15:21:20.175Z,38.80
2022-12-06T15:27:30.776Z,40.10
2022-12-06T15:33:40.491Z,39.40
2022-12-06T15:39:49.614Z,38.90
2022-12-06T15:46:00.807Z,38.70
2022-12-06T15:52:11.973Z,39.20
2022-12-06T15:58:23.671Z,39.10
2022-12-06T16:04:35.725Z,38.60
2022-12-06T16:11:11.274Z,38.50
2022-12-06T16:16:57.831Z,38.40
2022-12-06T16:23:23.554Z,38.70
2022-12-06T16:29:38.816Z,38.90
2022-12-06T16:35:49.950Z,40.40
2022-12-06T16:42:01.924Z,39.60
2022-12-06T16:48:14.505Z,39.30
2022-12-06T16:54:25.534Z,38.60
2022-12-06T17:00:40.773Z,38.60
2022-12-06T17:06:52.324Z,38.80
2022-12-06T17:13:16.906Z,39.00
2022-12-06T17:19:29.041Z,39.50
2022-12-06T17:25:40.259Z,39.80
2022-12-06T17:31:50.357Z,39.00
2022-12-06T17:37:58.399Z,38.60
2022-12-06T17:44:11.383Z,38.80
2022-12-06T17:50:23.721Z,39.50
2022-12-06T17:56:34.958Z,40.20
2022-12-06T18:02:49.507Z,40.40
2022-12-06T18:09:04.272Z,40.50
2022-12-06T18:15:18.511Z,39.90
2022-12-06T18:21:29.004Z,39.80
2022-12-06T18:27:38.339Z,40.30
2022-12-06T18:33:46.562Z,40.70
2022-12-06T18:39:57.100Z,40.20
2022-12-06T18:46:08.531Z,39.20
2022-12-06T18:52:21.374Z,40.00
2022-12-06T18:58:33.491Z,40.00
2022-12-06T19:04:44.478Z,40.10
2022-12-06T19:10:56.632Z,39.80
2022-12-06T19:17:07.561Z,39.70
2022-12-06T19:23:16.858Z,39.80
2022-12-06T19:29:27.062Z,40.50
2022-12-06T19:35:39.369Z,39.90
2022-12-06T19:42:13.242Z,39.20
2022-12-06T19:48:22.764Z,39.00
2022-12-06T19:54:33.002Z,39.30
2022-12-06T20:00:45.249Z,39.40
2022-12-06T20:06:57.780Z,39.50
2022-12-06T20:13:07.349Z,39.50
2022-12-06T20:19:20.000Z,39.80
2022-12-06T20:25:30.452Z,39.10
2022-12-06T20:31:41.587Z,38.90
2022-12-06T20:37:54.069Z,39.00
2022-12-06T20:44:05.729Z,39.10
2022-12-06T20:50:16.849Z,39.20
2022-12-06T20:56:29.259Z,39.80
2022-12-06T21:02:40.143Z,42.10
2022-12-06T21:08:49.417Z,40.00
2022-12-06T21:14:57.592Z,39.80
2022-12-06T21:21:06.838Z,39.80
2022-12-06T21:27:15.282Z,40.00
2022-12-06T21:33:25.795Z,40.20
2022-12-06T21:39:36.563Z,40.40
2022-12-06T21:45:46.158Z,40.90
2022-12-06T21:52:03.347Z,41.20
2022-12-06T21:58:11.364Z,40.30
2022-12-06T22:04:24.019Z,40.30
2022-12-06T22:10:41.125Z,40.30
2022-12-06T22:16:53.712Z,40.40
2022-12-06T22:23:04.948Z,40.70
2022-12-06T22:29:15.797Z,40.50
2022-12-06T22:35:28.867Z,40.40
2022-12-06T22:41:41.710Z,40.60
2022-12-06T22:47:52.925Z,40.80
2022-12-06T22:54:03.604Z,41.00
2022-12-06T23:00:19.795Z,40.30
2022-12-06T23:06:30.864Z,41.00
2022-12-06T23:12:42.996Z,41.10
2022-12-06T23:18:53.805Z,41.20
2022-12-06T23:25:02.038Z,41.50
2022-12-06T23:31:12.104Z,41.60
2022-12-06T23:37:20.668Z,41.50
2022-12-06T23:43:32.387Z,41.60
2022-12-06T23:49:41.612Z,41.60
2022-12-06T23:55:53.339Z,41.80
